This is the latest recevied weather packets stored in our database for station/object KZ4HT-13. If no packets are shown the sender has not sent any weather packets the latest 10 day(s).
| Time | Temp. | Humidity | Pressure | Rain* | Wind** | Luminosity | Snow |
|---|---|---|---|---|---|---|---|
| 1777857065 | 20.56° C | 69% | 1017.3 hPa | 1.27 mm | - | - | - |
| 1777847442 | 24.44° C | 59% | 1016.4 hPa | 1.27 mm | - | - | - |
| 1777842031 | 25° C | 55% | 1016.2 hPa | 1.27 mm | - | - | - |
| 1777841430 | 25° C | 55% | 1016.1 hPa | 1.27 mm | - | - | - |
| 1777840228 | 25° C | 55% | 1016.4 hPa | 1.27 mm | - | - | - |
| 1777831862 | 24.44° C | 58% | 1018.2 hPa | 1.27 mm | - | - | - |
| 1777830659 | 23.89° C | 61% | 1018.4 hPa | 1.27 mm | - | - | - |
| 1777825846 | 22.78° C | 67% | 1019 hPa | 1.27 mm | - | - | - |
| 1777825265 | 22.78° C | 68% | 1018.9 hPa | 1.27 mm | - | - | - |
| 1777824643 | 22.22° C | 69% | 1019 hPa | 1.27 mm | - | - | - |
| 1777824043 | 21.67° C | 71% | 1018.9 hPa | 1.27 mm | - | - | - |
| 1777816827 | 18.89° C | 82% | 1018.3 hPa | 1.27 mm | - | - | - |
| 1777815023 | 18.33° C | 84% | 1017.8 hPa | 1.27 mm | - | - | - |
| 1777810312 | 17.78° C | 90% | 1017.3 hPa | 1.27 mm | - | - | - |
| 1777808489 | 17.78° C | 91% | 1016.9 hPa | 1.27 mm | - | - | - |
| 1777807866 | 17.78° C | 92% | 1016.9 hPa | 1.27 mm | - | - | - |
| 1777802451 | 17.78° C | 94% | 1016.2 hPa | 1.27 mm | - | - | - |
| 1777801249 | 17.78° C | 94% | 1015.9 hPa | 1.27 mm | - | - | - |
| 1777789818 | 17.78° C | 95% | 1015.1 hPa | 1.02 mm | - | - | - |
| 1777788074 | 18.33° C | 94% | 1015.3 hPa | 1.02 mm | - | - | - |
| 1777780250 | 21.67° C | 94% | 1014.2 hPa | 4.57 mm | - | - | - |
| 1777779048 | 21.67° C | 94% | 1013.7 hPa | 4.57 mm | - | - | - |
| 1777778448 | 21.67° C | 94% | 1013.9 hPa | 4.57 mm | - | - | - |
| 1777777243 | 21.11° C | 94% | 1013.8 hPa | 4.57 mm | - | - | - |
| 1777776040 | 21.11° C | 94% | 1013.5 hPa | 4.57 mm | - | - | - |
* Rain since midnight (hover to see other rain measurements)
** Current wind speed in m/s (hover to see current wind gust speed)